Erie International Tom Ridge Field Erie US
ICAO: KERI
IATA: ERI
Category: Large
Scheduled Services: Yes

Elevation: 732 ft
TransAlt. 18000 ft.

Airport Communications:
APP/DEP:121
ATIS:120.35
CLNC DEL:126.8
CTAF:118.1
GND:121.9
ALTOONA RDO:109.4
TWR:118.1
UNICOM:122.95

KERI Zoom In..

If Map Doesn't Load, Click Here

Runways:

(A) RW 02 length 3508 ft width 150 ft
---- / hdg 20

(B) RW 06 length 8420 ft width 150 ft
ILS 110.30 / hdg 64

(C) RW 20 length 3508 ft width 150 ft
---- / hdg 200

(D) RW 24 length 8420 ft width 150 ft
ILS 110.30 / hdg 244

Location; KERI
Day. 23 / Time. 07.51 Zulu
* Altimeter: 30.21
* Temperature: 11° c. 51.8°f.
* Wind from: 000° Speed 00 kn.
Dewpoint: 08° c.
Visibility: 10 Statute Miles.
Clouds: Clear (automated report).

KERI 230751Z AUTO 00000KT 10SM CLR 11/08 A3021 RMK AO2 SLP230 T01060078


Wind - Calm.

 
 
jpsmedia.com for Web Design worldairports.se 2018   terms of use